Terminal Aerodrome Forecast
Issued by NWS Sterling, VA

Home | Current Version | Previous Version | Text Only | Print | Product List | Glossary On
Versions: 1 2 3 4 5 6 7 8 9 10 11
000
FTUS41 KLWX 282300 RRA
TAFMRB
TAF
KMRB 282341Z 2900/2924 33006KT P6SM OVC040
     FM291300 36003KT P6SM OVC060
     FM291700 35006KT P6SM BKN150=

USA.gov is the U.S. government's official web portal to all federal, state and local government web resources and services.